createdAt,value
2019-05-16T00:00:21.946Z,99.90
2019-05-16T00:02:50.345Z,99.90
2019-05-16T00:05:18.849Z,99.90
2019-05-16T00:07:49.239Z,99.90
2019-05-16T00:10:18.701Z,99.90
2019-05-16T00:12:48.691Z,99.90
2019-05-16T00:15:18.229Z,99.90
2019-05-16T00:17:48.883Z,99.90
2019-05-16T00:20:19.084Z,99.90
2019-05-16T00:22:48.383Z,99.90
2019-05-16T00:25:17.988Z,99.90
2019-05-16T00:27:47.976Z,99.90
2019-05-16T00:30:18.117Z,99.90
2019-05-16T00:32:48.160Z,99.90
2019-05-16T00:35:18.237Z,99.90
2019-05-16T00:37:48.367Z,99.90
2019-05-16T00:40:18.791Z,99.90
2019-05-16T00:42:49.159Z,99.90
2019-05-16T00:45:18.490Z,99.90
2019-05-16T00:47:47.968Z,99.90
2019-05-16T00:50:18.315Z,99.90
2019-05-16T00:52:48.819Z,99.90
2019-05-16T00:55:18.010Z,99.90
2019-05-16T00:57:48.121Z,99.90
2019-05-16T01:00:18.470Z,99.90
2019-05-16T01:02:48.590Z,99.90
2019-05-16T01:05:19.088Z,99.90
2019-05-16T01:07:48.035Z,99.90
2019-05-16T01:10:18.328Z,99.90
2019-05-16T01:12:48.079Z,99.90
2019-05-16T01:15:18.428Z,99.90
2019-05-16T01:17:48.339Z,99.90
2019-05-16T01:20:19.373Z,99.90
2019-05-16T01:22:49.035Z,99.90
2019-05-16T01:25:19.527Z,99.90
2019-05-16T01:27:48.052Z,99.90
2019-05-16T01:30:18.699Z,99.90
2019-05-16T01:32:48.958Z,99.90
2019-05-16T01:35:18.783Z,99.90
2019-05-16T01:37:48.857Z,99.90
2019-05-16T01:40:18.893Z,99.90
2019-05-16T01:42:48.937Z,99.90
2019-05-16T01:45:18.815Z,99.90
2019-05-16T01:47:48.227Z,99.90
2019-05-16T01:50:18.073Z,99.90
2019-05-16T01:52:48.713Z,99.90
2019-05-16T01:55:18.699Z,99.90
2019-05-16T01:57:48.095Z,99.90
2019-05-16T02:00:23.311Z,99.90
2019-05-16T02:02:48.814Z,99.90
2019-05-16T02:05:18.786Z,99.90
2019-05-16T02:07:48.030Z,99.90
2019-05-16T02:10:18.165Z,99.90
2019-05-16T02:12:49.039Z,99.90
2019-05-16T02:15:18.193Z,99.90
2019-05-16T02:17:48.448Z,99.90
2019-05-16T02:20:18.035Z,99.90
2019-05-16T02:22:48.248Z,99.90
2019-05-16T02:25:18.560Z,99.90
2019-05-16T02:27:48.822Z,99.90
2019-05-16T02:30:21.341Z,99.90
2019-05-16T02:32:47.715Z,99.90
2019-05-16T02:35:16.191Z,99.90
2019-05-16T02:37:44.591Z,99.90
2019-05-16T02:40:16.064Z,99.90
2019-05-16T02:42:44.467Z,99.90
2019-05-16T02:45:13.091Z,99.90
2019-05-16T02:47:44.669Z,99.90
2019-05-16T02:50:14.103Z,99.90
2019-05-16T02:52:42.508Z,99.90
2019-05-16T02:55:12.190Z,99.90
2019-05-16T02:57:41.777Z,99.90
2019-05-16T03:00:12.303Z,99.90
2019-05-16T03:02:41.942Z,99.90
2019-05-16T03:05:12.233Z,99.90
2019-05-16T03:07:47.097Z,99.90
2019-05-16T03:10:13.706Z,99.90
2019-05-16T03:12:43.538Z,99.90
2019-05-16T03:15:12.073Z,99.90
2019-05-16T03:17:43.274Z,99.90
2019-05-16T03:20:12.907Z,99.90
2019-05-16T03:22:41.310Z,99.90
2019-05-16T03:25:11.397Z,99.90
2019-05-16T03:27:41.377Z,99.90
2019-05-16T03:30:15.347Z,99.90
2019-05-16T03:32:44.653Z,99.90
2019-05-16T03:35:15.748Z,99.90
2019-05-16T03:37:55.261Z,99.90
2019-05-16T03:40:14.689Z,99.90
2019-05-16T03:42:43.082Z,99.90
2019-05-16T03:45:11.715Z,99.90
2019-05-16T03:47:42.631Z,99.90
2019-05-16T03:50:11.267Z,99.90
2019-05-16T03:52:43.348Z,99.90
2019-05-16T03:55:11.388Z,99.90
2019-05-16T03:57:41.487Z,99.90
2019-05-16T04:00:11.697Z,99.90
2019-05-16T04:02:44.783Z,99.90
2019-05-16T04:05:11.465Z,99.90
2019-05-16T04:07:41.695Z,99.90
2019-05-16T04:10:11.113Z,99.90
2019-05-16T04:12:41.958Z,99.90
2019-05-16T04:15:11.294Z,99.90
2019-05-16T04:17:41.224Z,99.90
2019-05-16T04:20:11.830Z,99.90
2019-05-16T04:22:41.016Z,99.90
2019-05-16T04:25:11.604Z,99.90
2019-05-16T04:27:41.693Z,99.90
2019-05-16T04:30:11.914Z,99.90
2019-05-16T04:32:41.905Z,99.90
2019-05-16T04:35:11.526Z,99.90
2019-05-16T04:37:42.276Z,99.90
2019-05-16T04:40:12.178Z,99.90
2019-05-16T04:42:41.968Z,99.90
2019-05-16T04:45:11.895Z,99.90
2019-05-16T04:47:41.570Z,99.90
2019-05-16T04:50:11.934Z,99.90
2019-05-16T04:52:41.879Z,99.90
2019-05-16T04:55:11.869Z,99.90
2019-05-16T04:57:42.330Z,99.90
2019-05-16T05:00:12.238Z,99.90
2019-05-16T05:02:41.761Z,99.90
2019-05-16T05:05:12.623Z,99.90
2019-05-16T05:07:41.510Z,99.90
2019-05-16T05:10:11.311Z,99.90
2019-05-16T05:12:40.918Z,99.90
2019-05-16T05:15:11.292Z,99.90
2019-05-16T05:17:41.519Z,99.90
2019-05-16T05:20:10.890Z,99.90
2019-05-16T05:22:39.908Z,99.90
2019-05-16T05:25:10.971Z,99.90
2019-05-16T05:27:41.234Z,99.90
2019-05-16T05:30:10.459Z,99.90
2019-05-16T05:32:41.247Z,99.90
2019-05-16T05:35:10.608Z,99.90
2019-05-16T05:37:40.990Z,99.90
2019-05-16T05:40:10.900Z,99.90
2019-05-16T05:42:40.337Z,99.90
2019-05-16T05:45:11.087Z,99.90
2019-05-16T05:47:40.348Z,99.90
2019-05-16T05:50:11.233Z,99.90
2019-05-16T05:52:41.051Z,99.90
2019-05-16T05:55:10.645Z,99.90
2019-05-16T05:57:40.311Z,99.90
2019-05-16T06:00:10.620Z,99.90
2019-05-16T06:02:40.232Z,99.90
2019-05-16T06:05:10.719Z,99.90
2019-05-16T06:07:40.494Z,99.90
2019-05-16T06:10:10.667Z,99.90
2019-05-16T06:12:40.899Z,99.90
2019-05-16T06:15:12.862Z,99.90
2019-05-16T06:17:40.367Z,99.90
2019-05-16T06:20:14.517Z,99.90
2019-05-16T06:22:40.412Z,99.90
2019-05-16T06:25:13.442Z,99.90
2019-05-16T06:27:40.647Z,99.90
2019-05-16T06:30:11.406Z,99.90
2019-05-16T06:32:40.159Z,99.90
2019-05-16T06:35:09.899Z,99.90
2019-05-16T06:37:40.687Z,99.90
2019-05-16T06:40:11.049Z,99.90
2019-05-16T06:42:40.343Z,99.90
2019-05-16T06:45:10.407Z,99.90
2019-05-16T06:47:39.636Z,99.90
2019-05-16T06:50:11.469Z,99.90
2019-05-16T06:52:40.872Z,99.90
2019-05-16T06:55:10.288Z,99.90
2019-05-16T06:57:40.858Z,99.90
2019-05-16T07:00:10.960Z,99.90
2019-05-16T07:02:40.811Z,99.90
2019-05-16T07:05:10.118Z,99.90
2019-05-16T07:07:40.509Z,99.90
2019-05-16T07:10:10.057Z,99.90
2019-05-16T07:12:41.117Z,99.90
2019-05-16T07:15:12.416Z,99.90
2019-05-16T07:17:39.902Z,99.90
2019-05-16T07:20:10.396Z,99.90
2019-05-16T07:22:40.584Z,99.90
2019-05-16T07:25:10.608Z,99.90
2019-05-16T07:27:40.150Z,99.90
2019-05-16T07:30:10.655Z,99.90
2019-05-16T07:32:40.406Z,99.90
2019-05-16T07:35:09.857Z,99.90
2019-05-16T07:37:40.047Z,99.90
2019-05-16T07:40:19.018Z,99.90
2019-05-16T07:42:40.324Z,99.90
2019-05-16T07:45:11.016Z,99.90
2019-05-16T07:47:40.310Z,99.90
2019-05-16T07:50:10.494Z,99.90
2019-05-16T07:52:40.287Z,99.90
2019-05-16T07:55:10.749Z,99.90
2019-05-16T07:57:39.851Z,99.90
2019-05-16T08:00:10.095Z,99.90
2019-05-16T08:02:40.296Z,99.90
2019-05-16T08:05:10.361Z,99.90
2019-05-16T08:07:40.831Z,99.90
2019-05-16T08:10:10.883Z,99.90
2019-05-16T08:12:40.701Z,99.90
2019-05-16T08:15:10.239Z,99.90
2019-05-16T08:17:44.253Z,99.90
2019-05-16T08:20:10.885Z,99.90
2019-05-16T08:22:41.640Z,99.90
2019-05-16T08:25:11.039Z,99.90
2019-05-16T08:27:41.271Z,99.90
2019-05-16T08:30:11.329Z,99.90
2019-05-16T08:32:42.034Z,99.90
2019-05-16T08:35:11.183Z,99.90
2019-05-16T08:37:46.611Z,99.90
2019-05-16T08:40:11.585Z,99.90
2019-05-16T08:42:41.723Z,99.90
2019-05-16T08:45:13.029Z,99.90
2019-05-16T08:47:42.476Z,99.90
2019-05-16T08:50:14.383Z,99.90
2019-05-16T08:52:43.448Z,99.90
2019-05-16T08:55:13.658Z,99.90
2019-05-16T08:57:42.284Z,99.90
2019-05-16T09:00:14.701Z,99.90
2019-05-16T09:02:42.411Z,99.90
2019-05-16T09:05:13.484Z,99.90
2019-05-16T09:07:41.374Z,99.90
2019-05-16T09:10:43.509Z,99.90
2019-05-16T09:12:40.543Z,99.90
2019-05-16T09:15:09.281Z,99.90
2019-05-16T09:17:38.561Z,99.90
2019-05-16T09:20:07.550Z,99.90
2019-05-16T09:22:37.808Z,99.40
2019-05-16T09:25:08.063Z,99.50
2019-05-16T09:27:38.070Z,96.60
2019-05-16T09:30:07.751Z,99.80
2019-05-16T09:32:36.959Z,97.40
2019-05-16T09:35:09.193Z,99.90
2019-05-16T09:37:37.918Z,99.30
2019-05-16T09:40:07.968Z,91.80
2019-05-16T09:42:37.224Z,92.00
2019-05-16T09:45:07.498Z,94.10
2019-05-16T09:47:39.071Z,92.40
2019-05-16T09:50:08.885Z,93.90
2019-05-16T09:52:37.285Z,94.10
2019-05-16T09:55:07.058Z,98.20
2019-05-16T09:57:37.722Z,97.50
2019-05-16T10:00:09.443Z,99.60
2019-05-16T10:02:37.823Z,98.10
2019-05-16T10:05:13.308Z,98.40
2019-05-16T10:07:38.888Z,95.40
2019-05-16T10:10:08.879Z,96.20
2019-05-16T10:12:37.515Z,95.30
2019-05-16T10:15:07.604Z,97.30
2019-05-16T10:17:37.074Z,86.70
2019-05-16T10:20:09.683Z,91.50
2019-05-16T10:22:38.390Z,80.60
2019-05-16T10:25:07.993Z,63.30
2019-05-16T10:27:37.030Z,67.50
2019-05-16T10:30:08.730Z,60.90
2019-05-16T10:32:39.819Z,65.80
2019-05-16T10:35:08.397Z,62.90
2019-05-16T10:37:37.557Z,59.20
2019-05-16T10:40:07.623Z,55.80
2019-05-16T10:42:37.914Z,58.00
2019-05-16T10:45:08.645Z,58.00
2019-05-16T10:47:37.461Z,58.90
2019-05-16T10:50:07.534Z,65.30
2019-05-16T10:52:36.832Z,57.50
2019-05-16T10:55:08.260Z,59.60
2019-05-16T10:57:37.784Z,54.90
2019-05-16T11:00:18.047Z,54.10
2019-05-16T11:02:38.464Z,53.70
2019-05-16T11:05:22.461Z,53.20
2019-05-16T11:07:37.456Z,59.60
2019-05-16T11:10:07.215Z,57.40
2019-05-16T11:12:47.729Z,55.90
2019-05-16T11:15:11.347Z,57.70
2019-05-16T11:17:40.218Z,56.50
2019-05-16T11:20:09.118Z,54.60
2019-05-16T11:22:37.589Z,56.80
2019-05-16T11:25:20.796Z,56.40
2019-05-16T11:27:37.633Z,56.60
2019-05-16T11:30:08.484Z,53.40
2019-05-16T11:32:37.643Z,56.60
2019-05-16T11:35:07.555Z,50.30
2019-05-16T11:37:37.874Z,53.10
2019-05-16T11:40:09.439Z,55.70
2019-05-16T11:42:39.670Z,55.30
2019-05-16T11:45:10.162Z,56.90
2019-05-16T11:47:39.413Z,55.70
2019-05-16T11:50:09.036Z,57.80
2019-05-16T11:52:40.423Z,55.10
2019-05-16T11:55:07.814Z,57.20
2019-05-16T11:57:38.006Z,55.60
2019-05-16T12:00:08.611Z,56.70
2019-05-16T12:02:38.907Z,59.20
2019-05-16T12:05:07.488Z,63.10
2019-05-16T12:07:43.838Z,56.60
2019-05-16T12:10:09.321Z,57.60
2019-05-16T12:12:37.851Z,57.80
2019-05-16T12:15:07.854Z,58.30
2019-05-16T12:17:36.905Z,56.70
2019-05-16T12:20:08.371Z,57.20
2019-05-16T12:22:37.685Z,57.60
2019-05-16T12:25:08.116Z,57.00
2019-05-16T12:27:42.218Z,58.10
2019-05-16T12:30:13.691Z,64.60
2019-05-16T12:32:39.392Z,59.00
2019-05-16T12:35:08.035Z,64.10
2019-05-16T12:37:37.302Z,58.40
2019-05-16T12:40:07.870Z,58.20
2019-05-16T12:42:36.606Z,59.30
2019-05-16T12:45:08.582Z,60.90
2019-05-16T12:47:37.678Z,58.30
2019-05-16T12:50:13.299Z,59.10
2019-05-16T12:52:41.763Z,61.40
2019-05-16T12:55:11.446Z,59.10
2019-05-16T12:57:39.862Z,61.30
2019-05-16T13:00:15.332Z,62.20
2019-05-16T13:02:41.278Z,61.60
2019-05-16T13:05:11.010Z,62.80
2019-05-16T13:07:39.437Z,63.70
2019-05-16T13:10:08.271Z,64.10
2019-05-16T13:12:37.739Z,61.90
2019-05-16T13:15:07.406Z,63.10
2019-05-16T13:17:37.321Z,62.30
2019-05-16T13:20:07.956Z,65.90
2019-05-16T13:22:38.475Z,64.30
2019-05-16T13:25:08.074Z,63.50
2019-05-16T13:27:37.377Z,65.20
2019-05-16T13:30:09.023Z,67.10
2019-05-16T13:32:37.606Z,66.10
2019-05-16T13:35:07.712Z,70.50
2019-05-16T13:37:36.368Z,72.80
2019-05-16T13:40:08.603Z,70.30
2019-05-16T13:42:37.196Z,67.10
2019-05-16T13:45:09.799Z,67.20
2019-05-16T13:47:38.198Z,72.70
2019-05-16T13:50:12.073Z,69.20
2019-05-16T13:52:38.451Z,67.70
2019-05-16T13:55:08.346Z,71.50
2019-05-16T13:57:37.382Z,73.60
2019-05-16T14:00:08.198Z,71.00
2019-05-16T14:02:37.813Z,68.80
2019-05-16T14:05:07.821Z,71.40
2019-05-16T14:07:37.427Z,74.60
2019-05-16T14:10:09.629Z,74.60
2019-05-16T14:12:38.128Z,78.30
2019-05-16T14:15:08.296Z,80.60
2019-05-16T14:17:37.556Z,82.20
2019-05-16T14:20:14.689Z,87.00
2019-05-16T14:22:38.522Z,90.10
2019-05-16T14:25:08.054Z,91.30
2019-05-16T14:27:38.292Z,90.30
2019-05-16T14:30:08.685Z,89.60
2019-05-16T14:32:40.924Z,92.20
2019-05-16T14:35:08.737Z,92.80
2019-05-16T14:37:38.039Z,95.60
2019-05-16T14:40:07.988Z,97.50
2019-05-16T14:42:38.799Z,97.00
2019-05-16T14:45:12.130Z,99.40
2019-05-16T14:47:39.604Z,99.20
2019-05-16T14:50:13.252Z,99.90
2019-05-16T14:52:38.600Z,99.90
2019-05-16T14:55:07.529Z,99.90
2019-05-16T14:57:36.859Z,99.90
2019-05-16T15:00:08.030Z,99.90
2019-05-16T15:02:38.226Z,99.90
2019-05-16T15:05:07.947Z,99.90
2019-05-16T15:07:37.443Z,99.90
2019-05-16T15:10:07.797Z,99.90
2019-05-16T15:12:37.662Z,99.90
2019-05-16T15:15:19.383Z,99.90
2019-05-16T15:17:39.527Z,99.90
2019-05-16T15:20:09.059Z,99.90
2019-05-16T15:22:38.316Z,99.90
2019-05-16T15:25:08.484Z,99.90
2019-05-16T15:27:37.317Z,99.90
2019-05-16T15:30:10.916Z,99.90
2019-05-16T15:32:39.391Z,99.90
2019-05-16T15:35:08.725Z,99.90
2019-05-16T15:37:37.658Z,99.90
2019-05-16T15:40:07.910Z,99.90
2019-05-16T15:42:37.271Z,99.90
2019-05-16T15:45:08.099Z,99.90
2019-05-16T15:47:37.411Z,99.90
2019-05-16T15:50:08.727Z,99.90
2019-05-16T15:52:38.499Z,99.90
2019-05-16T15:55:10.396Z,99.90
2019-05-16T15:57:38.879Z,99.90
2019-05-16T16:00:10.762Z,99.90
2019-05-16T16:02:39.611Z,99.90
2019-05-16T16:05:09.530Z,99.90
2019-05-16T16:07:38.337Z,99.90
2019-05-16T16:10:07.418Z,99.90
2019-05-16T16:12:37.575Z,99.90
2019-05-16T16:15:07.820Z,99.90
2019-05-16T16:17:38.344Z,99.90
2019-05-16T16:20:10.466Z,99.90
2019-05-16T16:22:39.174Z,99.90
2019-05-16T16:25:08.032Z,99.90
2019-05-16T16:27:36.412Z,99.90
2019-05-16T16:30:07.114Z,99.90
2019-05-16T16:32:38.053Z,99.90
2019-05-16T16:35:08.037Z,99.90
2019-05-16T16:37:37.845Z,99.90
2019-05-16T16:40:11.164Z,99.90
2019-05-16T16:42:37.462Z,99.90
2019-05-16T16:45:09.738Z,99.90
2019-05-16T16:47:38.249Z,99.90
2019-05-16T16:50:08.268Z,99.90
2019-05-16T16:52:37.821Z,99.90
2019-05-16T16:55:08.400Z,99.90
2019-05-16T16:57:38.482Z,99.90
2019-05-16T17:00:08.395Z,99.90
2019-05-16T17:02:37.530Z,99.90
2019-05-16T17:05:11.774Z,99.90
2019-05-16T17:07:37.529Z,99.90
2019-05-16T17:10:08.082Z,99.90
2019-05-16T17:12:41.169Z,99.90
2019-05-16T17:15:09.286Z,99.90
2019-05-16T17:17:37.982Z,99.90
2019-05-16T17:20:08.175Z,99.90
2019-05-16T17:22:37.839Z,99.90
2019-05-16T17:25:12.108Z,99.90
2019-05-16T17:27:40.506Z,99.90
2019-05-16T17:30:18.044Z,99.90
2019-05-16T17:32:46.516Z,99.90
2019-05-16T17:35:18.756Z,99.90
2019-05-16T17:37:49.285Z,99.90
2019-05-16T17:40:18.264Z,99.90
2019-05-16T17:42:47.862Z,99.90
2019-05-16T17:45:18.093Z,99.90
2019-05-16T17:47:47.115Z,99.90
2019-05-16T17:50:19.612Z,99.90
2019-05-16T17:52:48.011Z,99.90
2019-05-16T17:55:17.659Z,99.90
2019-05-16T17:57:46.425Z,99.90
2019-05-16T18:00:24.904Z,99.90
2019-05-16T18:02:46.731Z,99.90
2019-05-16T18:05:17.013Z,99.90
2019-05-16T18:07:47.523Z,99.90
2019-05-16T18:10:16.242Z,99.90
2019-05-16T18:12:44.670Z,99.90
2019-05-16T18:15:13.594Z,99.90
2019-05-16T18:17:42.071Z,99.90
2019-05-16T18:20:10.606Z,99.90
2019-05-16T18:22:39.078Z,99.90
2019-05-16T18:25:08.474Z,99.90
2019-05-16T18:27:37.569Z,99.90
2019-05-16T18:30:09.721Z,99.90
2019-05-16T18:32:38.473Z,99.90
2019-05-16T18:35:07.881Z,99.90
2019-05-16T18:37:36.258Z,99.90
2019-05-16T18:40:07.161Z,99.90
2019-05-16T18:42:36.899Z,99.90
2019-05-16T18:45:07.467Z,99.90
2019-05-16T18:47:37.829Z,99.90
2019-05-16T18:50:07.172Z,99.90
2019-05-16T18:52:37.457Z,99.90
2019-05-16T18:55:08.368Z,99.90
2019-05-16T18:57:37.826Z,99.90
2019-05-16T19:00:10.759Z,99.90
2019-05-16T19:02:39.779Z,99.90
2019-05-16T19:05:09.201Z,99.90
2019-05-16T19:07:37.631Z,99.90
2019-05-16T19:10:09.221Z,99.90
2019-05-16T19:12:37.693Z,99.90
2019-05-16T19:15:08.446Z,99.90
2019-05-16T19:17:36.993Z,99.90
2019-05-16T19:20:11.610Z,99.90
2019-05-16T19:22:40.014Z,99.90
2019-05-16T19:25:09.096Z,99.90
2019-05-16T19:27:37.682Z,99.90
2019-05-16T19:30:08.774Z,99.90
2019-05-16T19:32:39.488Z,99.90
2019-05-16T19:35:07.557Z,99.90
2019-05-16T19:37:40.375Z,99.90
2019-05-16T19:40:07.013Z,99.90
2019-05-16T19:42:36.881Z,99.90
2019-05-16T19:45:07.719Z,99.90
2019-05-16T19:47:40.704Z,99.90
2019-05-16T19:50:07.190Z,99.90
2019-05-16T19:52:36.630Z,99.90
2019-05-16T19:55:07.348Z,99.90
2019-05-16T19:57:37.491Z,99.90
2019-05-16T20:00:08.339Z,99.90
2019-05-16T20:02:37.378Z,99.90
2019-05-16T20:05:07.378Z,99.90
2019-05-16T20:07:37.161Z,99.90
2019-05-16T20:10:09.416Z,99.90
2019-05-16T20:12:37.214Z,99.90
2019-05-16T20:15:11.932Z,99.90
2019-05-16T20:17:51.052Z,99.90
2019-05-16T20:20:09.971Z,99.90
2019-05-16T20:22:38.389Z,99.90
2019-05-16T20:25:07.229Z,99.90
2019-05-16T20:27:36.829Z,99.90
2019-05-16T20:30:07.021Z,99.90
2019-05-16T20:32:37.114Z,99.90
2019-05-16T20:35:08.829Z,99.90
2019-05-16T20:37:37.592Z,99.90
2019-05-16T20:40:09.205Z,99.90
2019-05-16T20:42:37.323Z,99.90
2019-05-16T20:45:08.779Z,99.90
2019-05-16T20:47:37.283Z,99.90
2019-05-16T20:50:07.894Z,99.90
2019-05-16T20:52:37.833Z,99.90
2019-05-16T20:55:07.818Z,99.90
2019-05-16T20:57:37.634Z,99.90
2019-05-16T21:00:09.010Z,99.90
2019-05-16T21:02:37.990Z,99.90
2019-05-16T21:05:07.205Z,99.90
2019-05-16T21:07:37.443Z,99.90
2019-05-16T21:10:09.413Z,99.90
2019-05-16T21:12:40.379Z,99.90
2019-05-16T21:15:08.512Z,99.90
2019-05-16T21:17:37.228Z,99.90
2019-05-16T21:20:07.778Z,99.90
2019-05-16T21:22:37.210Z,99.90
2019-05-16T21:25:06.425Z,99.90
2019-05-16T21:27:37.489Z,99.90
2019-05-16T21:30:08.613Z,99.90
2019-05-16T21:32:37.255Z,99.90
2019-05-16T21:35:09.084Z,99.90
2019-05-16T21:37:37.800Z,99.90
2019-05-16T21:40:08.051Z,99.90
2019-05-16T21:42:36.729Z,99.90
2019-05-16T21:45:09.192Z,99.90
2019-05-16T21:47:37.681Z,99.90
2019-05-16T21:50:08.787Z,99.90
2019-05-16T21:52:37.313Z,99.90
2019-05-16T21:55:07.448Z,99.90
2019-05-16T21:57:37.763Z,99.90
2019-05-16T22:00:16.732Z,99.90
2019-05-16T22:02:46.685Z,99.90
2019-05-16T22:05:17.140Z,99.90
2019-05-16T22:07:47.357Z,99.90
2019-05-16T22:10:16.413Z,99.90
2019-05-16T22:12:47.462Z,99.90
2019-05-16T22:15:17.058Z,99.90
2019-05-16T22:17:47.149Z,99.90
2019-05-16T22:20:16.551Z,99.90
2019-05-16T22:22:46.919Z,99.90
2019-05-16T22:25:17.016Z,99.90
2019-05-16T22:27:48.663Z,99.90
2019-05-16T22:30:17.385Z,99.90
2019-05-16T22:32:47.401Z,99.90
2019-05-16T22:35:17.669Z,99.90
2019-05-16T22:37:55.178Z,99.90
2019-05-16T22:40:17.614Z,99.90
2019-05-16T22:42:46.890Z,99.90
2019-05-16T22:45:17.728Z,99.90
2019-05-16T22:47:46.663Z,99.90
2019-05-16T22:50:17.596Z,99.90
2019-05-16T22:52:46.763Z,99.90
2019-05-16T22:55:17.083Z,99.90
2019-05-16T22:57:47.309Z,99.90
2019-05-16T23:00:23.829Z,99.90
2019-05-16T23:02:52.284Z,99.90
2019-05-16T23:05:20.982Z,99.90
2019-05-16T23:08:02.022Z,99.90
2019-05-16T23:10:19.745Z,99.90
2019-05-16T23:12:48.207Z,99.90
2019-05-16T23:15:17.242Z,99.90
2019-05-16T23:17:46.635Z,99.90
2019-05-16T23:20:17.132Z,99.90
2019-05-16T23:22:47.029Z,99.90
2019-05-16T23:25:17.134Z,99.90
2019-05-16T23:27:47.402Z,99.90
2019-05-16T23:30:16.539Z,99.90
2019-05-16T23:32:47.180Z,99.90
2019-05-16T23:35:16.002Z,99.90
2019-05-16T23:37:46.346Z,99.90
2019-05-16T23:40:15.271Z,99.90
2019-05-16T23:42:46.296Z,99.90
2019-05-16T23:45:17.138Z,99.90
2019-05-16T23:47:47.143Z,99.90
2019-05-16T23:50:17.058Z,99.90
2019-05-16T23:52:47.133Z,99.90
2019-05-16T23:55:17.424Z,99.90
2019-05-16T23:57:46.568Z,99.90
